createdAt,value
2023-01-13T00:01:12.181Z,98758.86
2023-01-13T00:04:01.146Z,98761.02
2023-01-13T00:06:49.376Z,98755.69
2023-01-13T00:09:37.519Z,98757.38
2023-01-13T00:12:25.306Z,98755.19
2023-01-13T00:15:13.907Z,98752.98
2023-01-13T00:18:01.933Z,98754.79
2023-01-13T00:21:03.901Z,98753.98
2023-01-13T00:23:54.287Z,98748.64
2023-01-13T00:26:42.548Z,98745.14
2023-01-13T00:29:30.552Z,98733.55
2023-01-13T00:32:18.324Z,98730.89
2023-01-13T00:35:06.842Z,98723.69
2023-01-13T00:37:55.024Z,98723.41
2023-01-13T00:40:42.939Z,98717.86
2023-01-13T00:43:32.893Z,98716.21
2023-01-13T00:46:22.381Z,98720.14
2023-01-13T00:49:10.887Z,98712.69
2023-01-13T00:52:00.076Z,98709.79
2023-01-13T00:54:48.051Z,98707.58
2023-01-13T00:57:36.106Z,98702.38
2023-01-13T01:00:24.860Z,98696.55
2023-01-13T01:03:12.657Z,98691.81
2023-01-13T01:06:14.160Z,98684.85
2023-01-13T01:09:02.760Z,98670.94
2023-01-13T01:11:51.185Z,98670.11
2023-01-13T01:14:38.908Z,98662.98
2023-01-13T01:17:28.353Z,98657.63
2023-01-13T01:20:16.409Z,98656.55
2023-01-13T01:23:04.452Z,98654.48
2023-01-13T01:25:52.174Z,98649.52
2023-01-13T01:28:41.001Z,98646.08
2023-01-13T01:31:32.979Z,98643.14
2023-01-13T01:34:20.826Z,98642.48
2023-01-13T01:37:09.082Z,98634.35
2023-01-13T01:39:56.819Z,98628.54
2023-01-13T01:43:03.233Z,98627.08
2023-01-13T01:45:52.746Z,98626.52
2023-01-13T01:48:43.192Z,98622.81
2023-01-13T01:51:37.331Z,98615.73
2023-01-13T01:54:34.596Z,98613.17
2023-01-13T01:57:40.416Z,98616.77
2023-01-13T02:00:29.913Z,98616.71
2023-01-13T02:03:19.024Z,98604.63
2023-01-13T02:06:08.394Z,98603.02
2023-01-13T02:08:57.382Z,98603.27
2023-01-13T02:12:03.422Z,98603.90
2023-01-13T02:14:51.509Z,98602.08
2023-01-13T02:17:48.055Z,98600.59
2023-01-13T02:20:51.023Z,98597.25
2023-01-13T02:24:28.047Z,98594.05
2023-01-13T02:28:23.517Z,98590.20
2023-01-13T02:31:33.951Z,98585.30
2023-01-13T02:35:04.200Z,98582.73
2023-01-13T02:37:53.486Z,98577.77
2023-01-13T02:40:47.984Z,98568.21
2023-01-13T02:43:58.205Z,98573.27
2023-01-13T02:46:50.059Z,98573.25
2023-01-13T02:49:43.792Z,98566.34
2023-01-13T02:52:44.895Z,98567.18
2023-01-13T02:55:48.740Z,98564.42
2023-01-13T02:58:39.563Z,98562.58
2023-01-13T03:01:28.021Z,98553.37
2023-01-13T03:04:52.073Z,98555.09
2023-01-13T03:07:47.992Z,98553.88
2023-01-13T03:11:08.981Z,98547.11
2023-01-13T03:14:36.240Z,98546.52
2023-01-13T03:18:02.066Z,98543.83
2023-01-13T03:21:21.248Z,98544.71
2023-01-13T03:24:34.093Z,98543.85
2023-01-13T03:27:34.441Z,98539.33
2023-01-13T03:31:05.539Z,98538.13
2023-01-13T03:34:03.621Z,98537.00
2023-01-13T03:36:55.239Z,98540.09
2023-01-13T03:39:55.247Z,98538.59
2023-01-13T03:43:07.047Z,98536.38
2023-01-13T03:46:00.369Z,98530.17
2023-01-13T03:48:52.853Z,98532.93
2023-01-13T03:51:44.014Z,98532.84
2023-01-13T03:54:34.462Z,98527.19
2023-01-13T03:57:29.869Z,98524.48
2023-01-13T04:00:19.745Z,98526.33
2023-01-13T04:03:12.409Z,98525.34
2023-01-13T04:06:10.415Z,98530.31
2023-01-13T04:09:44.707Z,98530.68
2023-01-13T04:13:02.060Z,98519.16
2023-01-13T04:15:50.786Z,98518.38
2023-01-13T04:18:40.188Z,98511.91
2023-01-13T04:21:31.934Z,98512.65
2023-01-13T04:24:19.565Z,98506.21
2023-01-13T04:27:07.379Z,98503.88
2023-01-13T04:29:54.908Z,98507.02
2023-01-13T04:32:42.799Z,98505.38
2023-01-13T04:35:30.763Z,98508.21
2023-01-13T04:38:21.476Z,98505.29
2023-01-13T04:41:09.132Z,98509.91
2023-01-13T04:43:56.920Z,98507.02
2023-01-13T04:46:44.917Z,98505.49
2023-01-13T04:49:33.348Z,98508.98
2023-01-13T04:52:21.271Z,98508.66
2023-01-13T04:55:10.532Z,98508.98
2023-01-13T04:58:10.294Z,98510.54
2023-01-13T05:00:58.036Z,98510.92
2023-01-13T05:03:45.800Z,98501.98
2023-01-13T05:06:34.233Z,98505.46
2023-01-13T05:09:21.806Z,98506.13
2023-01-13T05:12:29.348Z,98506.20
2023-01-13T05:15:35.520Z,98513.09
2023-01-13T05:18:23.356Z,98510.33
2023-01-13T05:21:31.353Z,98512.92
2023-01-13T05:24:37.549Z,98518.83
2023-01-13T05:27:25.578Z,98517.16
2023-01-13T05:30:13.948Z,98516.23
2023-01-13T05:33:01.558Z,98515.85
2023-01-13T05:35:49.878Z,98516.00
2023-01-13T05:38:37.486Z,98517.45
2023-01-13T05:41:43.792Z,98524.56
2023-01-13T05:44:31.799Z,98523.63
2023-01-13T05:47:19.546Z,98528.13
2023-01-13T05:50:08.034Z,98533.35
2023-01-13T05:52:56.024Z,98532.45
2023-01-13T05:55:45.892Z,98541.21
2023-01-13T05:58:34.640Z,98541.76
2023-01-13T06:01:22.096Z,98544.56
2023-01-13T06:04:09.937Z,98542.05
2023-01-13T06:06:58.167Z,98543.51
2023-01-13T06:09:46.775Z,98544.91
2023-01-13T06:12:34.563Z,98547.41
2023-01-13T06:15:22.957Z,98555.32
2023-01-13T06:18:10.825Z,98556.10
2023-01-13T06:20:58.882Z,98554.61
2023-01-13T06:23:46.561Z,98558.94
2023-01-13T06:26:40.677Z,98557.27
2023-01-13T06:29:28.355Z,98557.69
2023-01-13T06:32:27.576Z,98562.31
2023-01-13T06:35:20.892Z,98564.73
2023-01-13T06:38:12.650Z,98568.73
2023-01-13T06:41:01.053Z,98574.02
2023-01-13T06:43:48.521Z,98577.27
2023-01-13T06:46:36.316Z,98576.30
2023-01-13T06:49:23.925Z,98578.05
2023-01-13T06:52:11.691Z,98576.80
2023-01-13T06:54:59.649Z,98579.40
2023-01-13T06:57:57.124Z,98579.98
2023-01-13T07:00:44.595Z,98581.16
2023-01-13T07:03:32.894Z,98578.38
2023-01-13T07:06:20.954Z,98580.21
2023-01-13T07:09:08.842Z,98586.58
2023-01-13T07:11:56.547Z,98586.95
2023-01-13T07:15:04.298Z,98578.53
2023-01-13T07:17:52.584Z,98576.52
2023-01-13T07:20:40.077Z,98577.07
2023-01-13T07:23:30.013Z,98578.14
2023-01-13T07:26:17.771Z,98586.66
2023-01-13T07:29:05.714Z,98588.54
2023-01-13T07:31:53.419Z,98592.44
2023-01-13T07:34:41.480Z,98595.67
2023-01-13T07:37:29.509Z,98598.83
2023-01-13T07:40:17.635Z,98599.70
2023-01-13T07:43:23.794Z,98594.48
2023-01-13T07:46:13.434Z,98600.35
2023-01-13T07:49:01.361Z,98597.89
2023-01-13T07:51:49.544Z,98599.33
2023-01-13T07:54:40.914Z,98600.22
2023-01-13T07:57:30.391Z,98603.89
2023-01-13T08:00:19.685Z,98607.10
2023-01-13T08:03:07.787Z,98608.54
2023-01-13T08:05:55.749Z,98614.98
2023-01-13T08:08:43.508Z,98613.42
2023-01-13T08:11:31.349Z,98615.91
2023-01-13T08:14:19.382Z,98615.27
2023-01-13T08:17:10.557Z,98619.13
2023-01-13T08:19:58.307Z,98624.23
2023-01-13T08:22:46.247Z,98623.86
2023-01-13T08:25:34.119Z,98623.23
2023-01-13T08:28:24.559Z,98622.02
2023-01-13T08:31:20.287Z,98616.46
2023-01-13T08:34:08.306Z,98614.30
2023-01-13T08:36:56.032Z,98619.55
2023-01-13T08:39:44.168Z,98614.34
2023-01-13T08:42:33.070Z,98617.63
2023-01-13T08:45:23.988Z,98625.77
2023-01-13T08:48:11.746Z,98634.52
2023-01-13T08:51:09.839Z,98641.01
2023-01-13T08:53:58.453Z,98642.86
2023-01-13T08:56:47.787Z,98650.06
2023-01-13T08:59:35.738Z,98649.59
2023-01-13T09:02:25.249Z,98654.94
2023-01-13T09:05:13.090Z,98657.92
2023-01-13T09:08:00.820Z,98657.88
2023-01-13T09:10:48.615Z,98658.20
2023-01-13T09:13:36.633Z,98652.59
2023-01-13T09:16:24.466Z,98655.05
2023-01-13T09:19:12.434Z,98646.62
2023-01-13T09:22:00.341Z,98651.24
2023-01-13T09:24:48.274Z,98654.98
2023-01-13T09:27:36.673Z,98660.28
2023-01-13T09:30:25.155Z,98662.80
2023-01-13T09:33:31.178Z,98668.86
2023-01-13T09:36:19.775Z,98667.88
2023-01-13T09:39:07.521Z,98668.89
2023-01-13T09:42:20.180Z,98670.98
2023-01-13T09:45:42.641Z,98671.45
2023-01-13T09:48:52.262Z,98678.33
2023-01-13T09:51:48.909Z,98673.45
2023-01-13T09:55:09.161Z,98676.66
2023-01-13T09:57:57.010Z,98675.27
2023-01-13T10:01:00.595Z,98674.03
2023-01-13T10:03:49.518Z,98671.22
2023-01-13T10:06:43.685Z,98669.20
2023-01-13T10:09:59.626Z,98670.08
2023-01-13T10:13:08.898Z,98669.71
2023-01-13T10:16:12.351Z,98677.00
2023-01-13T10:19:17.966Z,98674.42
2023-01-13T10:22:18.805Z,98671.60
2023-01-13T10:25:12.376Z,98678.87
2023-01-13T10:28:14.104Z,98672.83
2023-01-13T10:31:09.934Z,98667.02
2023-01-13T10:34:06.744Z,98668.27
2023-01-13T10:37:06.630Z,98669.24
2023-01-13T10:40:01.944Z,98669.38
2023-01-13T10:43:06.591Z,98664.98
2023-01-13T10:46:04.285Z,98652.91
2023-01-13T10:48:58.588Z,98639.23
2023-01-13T10:51:46.626Z,98641.42
2023-01-13T10:54:35.885Z,98641.55
2023-01-13T10:57:28.385Z,98646.98
2023-01-13T11:00:35.106Z,98641.77
2023-01-13T11:03:28.015Z,98632.29
2023-01-13T11:06:31.000Z,98630.79
2023-01-13T11:09:22.848Z,98617.98
2023-01-13T11:12:40.321Z,98611.75
2023-01-13T11:15:44.913Z,98618.69
2023-01-13T11:19:02.754Z,98622.19
2023-01-13T11:22:10.099Z,98618.98
2023-01-13T11:25:02.570Z,98629.27
2023-01-13T11:28:02.681Z,98622.89
2023-01-13T11:31:05.564Z,98614.98
2023-01-13T11:34:11.579Z,98623.48
2023-01-13T11:37:01.772Z,98623.89
2023-01-13T11:40:13.224Z,98622.02
2023-01-13T11:43:39.811Z,98631.91
2023-01-13T11:46:28.888Z,98629.45
2023-01-13T11:49:30.942Z,98633.45
2023-01-13T11:52:56.538Z,98637.46
2023-01-13T11:56:05.548Z,98636.88
2023-01-13T11:59:11.229Z,98637.73
2023-01-13T12:02:50.199Z,98640.79
2023-01-13T12:05:44.741Z,98648.20
2023-01-13T12:08:50.851Z,98647.03
2023-01-13T12:12:11.628Z,98651.36
2023-01-13T12:15:36.052Z,98655.08
2023-01-13T12:19:13.383Z,98649.50
2023-01-13T12:22:14.119Z,98642.98
2023-01-13T12:25:37.574Z,98645.55
2023-01-13T12:28:38.285Z,98647.83
2023-01-13T12:31:28.277Z,98642.09
2023-01-13T12:34:47.731Z,98643.84
2023-01-13T12:37:48.779Z,98647.84
2023-01-13T12:41:23.697Z,98658.71
2023-01-13T12:44:18.613Z,98662.13
2023-01-13T12:47:51.556Z,98649.34
2023-01-13T12:50:41.088Z,98643.02
2023-01-13T12:53:33.839Z,98636.06
2023-01-13T12:56:45.421Z,98647.88
2023-01-13T12:59:35.396Z,98662.02
2023-01-13T13:02:31.405Z,98657.39
2023-01-13T13:05:25.731Z,98655.52
2023-01-13T13:08:53.043Z,98664.80
2023-01-13T13:11:58.374Z,98668.34
2023-01-13T13:14:46.387Z,98658.84
2023-01-13T13:17:34.278Z,98653.66
2023-01-13T13:21:05.649Z,98649.70
2023-01-13T13:23:53.244Z,98652.16
2023-01-13T13:26:46.840Z,98644.52
2023-01-13T13:29:48.212Z,98634.42
2023-01-13T13:32:41.922Z,98640.33
2023-01-13T13:35:41.882Z,98656.46
2023-01-13T13:39:39.852Z,98661.48
2023-01-13T13:42:55.057Z,98668.88
2023-01-13T13:46:11.052Z,98693.14
2023-01-13T13:48:58.853Z,98687.92
2023-01-13T13:52:04.245Z,98673.53
2023-01-13T13:54:59.739Z,98681.52
2023-01-13T13:57:51.134Z,98678.36
2023-01-13T14:00:39.810Z,98684.77
2023-01-13T14:03:39.929Z,98695.08
2023-01-13T14:06:29.458Z,98698.30
2023-01-13T14:09:21.718Z,98701.70
2023-01-13T14:12:20.375Z,98689.86
2023-01-13T14:15:37.031Z,98682.60
2023-01-13T14:18:26.767Z,98681.80
2023-01-13T14:21:37.279Z,98668.48
2023-01-13T14:24:25.261Z,98674.11
2023-01-13T14:27:19.093Z,98684.06
2023-01-13T14:30:11.589Z,98688.48
2023-01-13T14:33:00.359Z,98688.02
2023-01-13T14:36:36.846Z,98684.34
2023-01-13T14:39:40.153Z,98681.76
2023-01-13T14:42:29.792Z,98684.48
2023-01-13T14:45:24.921Z,98690.94
2023-01-13T14:48:14.424Z,98696.03
2023-01-13T14:51:05.907Z,98698.71
2023-01-13T14:53:54.087Z,98699.20
2023-01-13T14:56:47.282Z,98692.20
2023-01-13T14:59:40.584Z,98694.61
2023-01-13T15:02:31.983Z,98688.28
2023-01-13T15:05:23.911Z,98692.35
2023-01-13T15:08:11.753Z,98701.95
2023-01-13T15:11:04.083Z,98709.05
2023-01-13T15:14:01.733Z,98702.56
2023-01-13T15:17:16.956Z,98695.38
2023-01-13T15:20:13.703Z,98697.91
2023-01-13T15:23:01.739Z,98700.73
2023-01-13T15:25:50.074Z,98708.34
2023-01-13T15:28:38.211Z,98714.85
2023-01-13T15:31:27.416Z,98715.40
2023-01-13T15:34:15.328Z,98721.85
2023-01-13T15:37:03.035Z,98726.66
2023-01-13T15:39:51.123Z,98726.81
2023-01-13T15:42:57.449Z,98729.62
2023-01-13T15:46:05.240Z,98728.14
2023-01-13T15:48:54.955Z,98733.20
2023-01-13T15:51:42.993Z,98736.41
2023-01-13T15:54:31.033Z,98738.78
2023-01-13T15:57:35.778Z,98738.05
2023-01-13T16:00:25.059Z,98737.27
2023-01-13T16:03:14.461Z,98745.26
2023-01-13T16:06:02.349Z,98749.22
2023-01-13T16:08:50.297Z,98753.87
2023-01-13T16:11:38.046Z,98757.05
2023-01-13T16:14:26.036Z,98759.50
2023-01-13T16:17:21.718Z,98746.44
2023-01-13T16:20:17.895Z,98754.17
2023-01-13T16:23:05.803Z,98756.89
2023-01-13T16:25:53.679Z,98758.46
2023-01-13T16:28:41.531Z,98752.14
2023-01-13T16:31:33.071Z,98748.36
2023-01-13T16:34:21.012Z,98748.71
2023-01-13T16:37:25.237Z,98752.31
2023-01-13T16:40:33.448Z,98752.65
2023-01-13T16:43:21.691Z,98754.27
2023-01-13T16:46:21.746Z,98759.92
2023-01-13T16:49:15.317Z,98760.73
2023-01-13T16:52:04.593Z,98760.70
2023-01-13T16:54:52.616Z,98767.23
2023-01-13T16:57:41.482Z,98762.95
2023-01-13T17:00:30.195Z,98763.41
2023-01-13T17:03:18.255Z,98764.47
2023-01-13T17:06:07.699Z,98765.23
2023-01-13T17:09:04.803Z,98768.48
2023-01-13T17:11:53.039Z,98774.67
2023-01-13T17:14:43.427Z,98775.98
2023-01-13T17:17:31.604Z,98778.11
2023-01-13T17:20:19.793Z,98781.48
2023-01-13T17:23:08.255Z,98783.08
2023-01-13T17:25:55.875Z,98786.97
2023-01-13T17:28:46.443Z,98787.36
2023-01-13T17:31:36.037Z,98785.11
2023-01-13T17:34:24.326Z,98791.54
2023-01-13T17:37:15.231Z,98789.10
2023-01-13T17:40:03.021Z,98794.44
2023-01-13T17:42:51.011Z,98796.12
2023-01-13T17:45:41.881Z,98796.29
2023-01-13T17:48:29.557Z,98798.36
2023-01-13T17:51:18.991Z,98803.37
2023-01-13T17:54:12.314Z,98803.14
2023-01-13T17:57:00.542Z,98804.64
2023-01-13T17:59:50.075Z,98807.42
2023-01-13T18:02:38.019Z,98802.28
2023-01-13T18:05:26.038Z,98801.71
2023-01-13T18:08:15.751Z,98799.29
2023-01-13T18:11:05.032Z,98798.52
2023-01-13T18:13:56.689Z,98798.41
2023-01-13T18:16:44.921Z,98804.02
2023-01-13T18:19:51.383Z,98807.35
2023-01-13T18:22:57.973Z,98808.64
2023-01-13T18:26:06.356Z,98809.41
2023-01-13T18:28:54.120Z,98812.97
2023-01-13T18:31:42.449Z,98816.45
2023-01-13T18:34:30.393Z,98818.83
2023-01-13T18:37:18.587Z,98821.36
2023-01-13T18:40:10.765Z,98821.45
2023-01-13T18:42:59.325Z,98827.24
2023-01-13T18:45:51.473Z,98831.38
2023-01-13T18:48:39.585Z,98836.09
2023-01-13T18:51:27.651Z,98839.50
2023-01-13T18:54:15.454Z,98838.87
2023-01-13T18:57:03.933Z,98838.09
2023-01-13T18:59:52.435Z,98844.39
2023-01-13T19:02:41.074Z,98843.63
2023-01-13T19:05:29.813Z,98843.23
2023-01-13T19:08:18.138Z,98837.11
2023-01-13T19:11:07.200Z,98837.20
2023-01-13T19:13:55.201Z,98843.27
2023-01-13T19:16:43.049Z,98839.89
2023-01-13T19:19:31.751Z,98841.55
2023-01-13T19:22:28.579Z,98839.70
2023-01-13T19:25:16.257Z,98841.04
2023-01-13T19:28:04.326Z,98838.66
2023-01-13T19:30:53.005Z,98835.34
2023-01-13T19:33:41.090Z,98836.63
2023-01-13T19:36:28.800Z,98840.81
2023-01-13T19:39:16.693Z,98842.30
2023-01-13T19:42:23.077Z,98842.64
2023-01-13T19:45:31.015Z,98843.23
2023-01-13T19:48:18.704Z,98843.21
2023-01-13T19:51:07.560Z,98840.98
2023-01-13T19:53:55.563Z,98840.89
2023-01-13T19:56:43.652Z,98845.23
2023-01-13T19:59:35.565Z,98850.75
2023-01-13T20:02:31.510Z,98855.20
2023-01-13T20:05:22.784Z,98851.20
2023-01-13T20:08:11.230Z,98855.27
2023-01-13T20:11:19.054Z,98854.67
2023-01-13T20:14:07.457Z,98849.05
2023-01-13T20:16:55.288Z,98850.63
2023-01-13T20:19:43.564Z,98850.39
2023-01-13T20:22:31.614Z,98850.11
2023-01-13T20:25:20.561Z,98846.35
2023-01-13T20:28:08.544Z,98848.20
2023-01-13T20:30:56.363Z,98849.27
2023-01-13T20:33:44.317Z,98853.16
2023-01-13T20:36:37.414Z,98859.88
2023-01-13T20:39:29.372Z,98856.88
2023-01-13T20:42:38.009Z,98847.40
2023-01-13T20:45:26.195Z,98850.09
2023-01-13T20:48:14.041Z,98845.06
2023-01-13T20:51:03.013Z,98844.36
2023-01-13T20:53:50.791Z,98844.63
2023-01-13T20:56:38.891Z,98844.98
2023-01-13T20:59:26.598Z,98841.63
2023-01-13T21:02:16.617Z,98842.64
2023-01-13T21:05:04.820Z,98841.72
2023-01-13T21:07:52.869Z,98845.03
2023-01-13T21:10:41.205Z,98846.95
2023-01-13T21:13:47.557Z,98853.38
2023-01-13T21:16:35.542Z,98856.01
2023-01-13T21:19:28.909Z,98858.46
2023-01-13T21:22:16.987Z,98861.38
2023-01-13T21:25:05.889Z,98858.67
2023-01-13T21:27:54.989Z,98861.29
2023-01-13T21:30:44.235Z,98862.33
2023-01-13T21:33:32.211Z,98870.34
2023-01-13T21:36:19.801Z,98864.93
2023-01-13T21:39:07.947Z,98865.66
2023-01-13T21:42:43.659Z,98865.37
2023-01-13T21:45:50.090Z,98871.95
2023-01-13T21:48:38.006Z,98876.64
2023-01-13T21:51:26.540Z,98879.48
2023-01-13T21:54:14.609Z,98876.23
2023-01-13T21:57:02.369Z,98874.34
2023-01-13T21:59:50.162Z,98870.89
2023-01-13T22:02:38.277Z,98867.71
2023-01-13T22:05:26.607Z,98867.83
2023-01-13T22:08:14.426Z,98867.85
2023-01-13T22:11:03.157Z,98869.86
2023-01-13T22:14:10.037Z,98875.40
2023-01-13T22:17:00.984Z,98880.23
2023-01-13T22:19:50.209Z,98872.58
2023-01-13T22:22:39.206Z,98880.02
2023-01-13T22:25:26.886Z,98883.69
2023-01-13T22:28:23.920Z,98881.95
2023-01-13T22:31:15.150Z,98884.27
2023-01-13T22:34:03.100Z,98886.36
2023-01-13T22:36:50.923Z,98882.77
2023-01-13T22:39:39.876Z,98880.53
2023-01-13T22:42:27.729Z,98878.47
2023-01-13T22:45:16.328Z,98877.15
2023-01-13T22:48:04.614Z,98876.75
2023-01-13T22:50:52.545Z,98876.45
2023-01-13T22:53:43.475Z,98872.04
2023-01-13T22:56:34.038Z,98870.19
2023-01-13T22:59:29.717Z,98871.10
2023-01-13T23:02:22.660Z,98875.96
2023-01-13T23:05:13.879Z,98873.27
2023-01-13T23:08:02.067Z,98873.77
2023-01-13T23:10:49.975Z,98874.77
2023-01-13T23:13:39.568Z,98876.06
2023-01-13T23:16:29.310Z,98879.23
2023-01-13T23:19:17.502Z,98875.35
2023-01-13T23:22:05.117Z,98878.55
2023-01-13T23:24:53.091Z,98881.94
2023-01-13T23:27:41.873Z,98881.76
2023-01-13T23:30:29.577Z,98880.50
2023-01-13T23:33:18.403Z,98884.09
2023-01-13T23:36:09.330Z,98889.20
2023-01-13T23:38:59.469Z,98893.42
2023-01-13T23:41:46.945Z,98890.75
2023-01-13T23:44:34.657Z,98884.64
2023-01-13T23:47:22.804Z,98889.50
2023-01-13T23:50:11.201Z,98891.01
2023-01-13T23:52:59.118Z,98888.81
2023-01-13T23:55:46.679Z,98882.20
2023-01-13T23:58:35.597Z,98885.36
